Linn Grove, Indiana
Current Conditions -  °F | °C
As of 5:54 AM on Thursday 27 Nov 2014 (Local Time) from KFWA Reporting Station
Overcast Overcast  
Wind Chill: 19°   Ceiling: 4900
Heat Index: 27°   Visibility: 8mi
Dew Point: 22°   Wind: 7mph
Humidity: 81%   Direction: 300°WNW
Pressure: 30.17"   Gusts: NA
Location:  40.64°N, 85.03°W
Report Text: KFWA 271054Z 30006KT 8SM FEW039 OVC049 M03/M06 A3017 RMK AO2 SLP228 T10281056
Loading
Personal Weather Stations






























Interactive Weather Map New forecast layout! Learn more

10-Day Weather Forecast

Advertisements
Track Severe Weather on mobile